Time;durP1;ratioP1;P1;durP2;ratioP2;P2;SDS_P1;SDS_P2;PMS_P1;PMS_P2;Temp;Humidity;BMP_temperature;BMP_pressure;BME280_temperature;BME280_humidity;BME280_pressure;Samples;Min_cycle;Max_cycle;Signal;HPM_P1;HPM_P2
2022/06/20 00:01:17;;;;;;;1.70;1.70;;;24.70;69.70;;;;;;5060532;28;43825;-70
2022/06/20 00:03:46;;;;;;;1.50;1.50;;;24.70;70.00;;;;;;5060469;28;43999;-71
2022/06/20 00:06:15;;;;;;;1.50;1.50;;;24.60;70.20;;;;;;5060866;28;43963;-70
2022/06/20 00:08:43;;;;;;;1.50;1.50;;;24.60;70.40;;;;;;5060491;28;44978;-71
2022/06/20 00:11:14;;;;;;;1.47;1.47;;;24.60;70.50;;;;;;5060239;28;43535;-70
2022/06/20 00:13:44;;;;;;;1.83;1.83;;;24.50;70.50;;;;;;5060322;28;43899;-70
2022/06/20 00:16:12;;;;;;;1.63;1.63;;;24.50;70.60;;;;;;5067130;28;44021;-71
2022/06/20 00:18:40;;;;;;;1.50;1.50;;;24.50;70.70;;;;;;5066449;28;44748;-70
2022/06/20 00:21:10;;;;;;;1.70;1.70;;;24.50;70.90;;;;;;5065105;28;45754;-69
2022/06/20 00:23:38;;;;;;;1.70;1.67;;;24.60;70.70;;;;;;5066901;28;44023;-70
2022/06/20 00:26:06;;;;;;;1.53;1.53;;;24.80;70.20;;;;;;5065726;28;44221;-71
2022/06/20 00:28:35;;;;;;;1.50;1.50;;;24.90;69.50;;;;;;5065012;28;45911;-71
2022/06/20 00:31:04;;;;;;;1.53;1.53;;;25.10;68.90;;;;;;5066744;28;43845;-70
2022/06/20 00:33:32;;;;;;;1.73;1.63;;;25.30;68.40;;;;;;5066979;28;43979;-71
2022/06/20 00:36:01;;;;;;;1.60;1.60;;;25.40;67.90;;;;;;5066753;28;44004;-71
2022/06/20 00:38:29;;;;;;;1.70;1.60;;;25.50;67.50;;;;;;5066451;28;43881;-70
2022/06/20 00:40:59;;;;;;;1.57;1.57;;;25.70;67.20;;;;;;5066930;28;44532;-70
2022/06/20 00:43:28;;;;;;;1.63;1.60;;;25.80;66.80;;;;;;5066624;28;44082;-71
2022/06/20 00:45:58;;;;;;;1.50;1.50;;;25.90;66.40;;;;;;5066641;28;43829;-71
2022/06/20 00:48:28;;;;;;;1.60;1.60;;;26.00;66.10;;;;;;5066079;28;44258;-71
2022/06/20 00:50:58;;;;;;;1.48;1.48;;;26.00;65.80;;;;;;5066282;28;43938;-70
2022/06/20 00:53:28;;;;;;;1.40;1.40;;;25.90;66.10;;;;;;5066380;28;44027;-69
2022/06/20 00:55:58;;;;;;;1.70;1.70;;;25.70;66.60;;;;;;5066812;28;43455;-70
2022/06/20 00:58:30;;;;;;;1.50;1.50;;;25.50;67.20;;;;;;5064526;28;45679;-70
2022/06/20 01:01:00;;;;;;;1.70;1.70;;;25.30;67.90;;;;;;5066256;28;43912;-70
2022/06/20 01:03:32;;;;;;;1.50;1.50;;;25.10;68.50;;;;;;5066261;28;44010;-70
2022/06/20 01:06:04;;;;;;;1.60;1.60;;;25.00;69.00;;;;;;5065117;28;43904;-71
2022/06/20 01:08:34;;;;;;;1.40;1.40;;;24.90;69.40;;;;;;5065866;28;44774;-70
2022/06/20 01:11:03;;;;;;;1.70;1.70;;;24.80;69.70;;;;;;5065887;28;43972;-71
2022/06/20 01:13:31;;;;;;;1.40;1.40;;;24.70;69.90;;;;;;5066076;28;43853;-71
2022/06/20 01:16:05;;;;;;;1.33;1.33;;;24.60;70.00;;;;;;5066495;28;43452;-70
2022/06/20 01:18:34;;;;;;;1.50;1.50;;;24.60;70.30;;;;;;5059630;28;43936;-71
2022/06/20 01:21:05;;;;;;;1.57;1.50;;;24.50;70.30;;;;;;5059535;28;43972;-70
2022/06/20 01:23:37;;;;;;;1.50;1.50;;;24.50;70.40;;;;;;5065035;28;44006;-70
2022/06/20 01:26:19;;;;;;;1.50;1.50;;;24.50;70.60;;;;;;5069891;28;44024;-71
2022/06/20 01:28:50;;;;;;;1.80;1.80;;;24.50;70.70;;;;;;5069596;28;43619;-70
2022/06/20 01:31:20;;;;;;;1.60;1.60;;;24.50;70.90;;;;;;5069262;28;43743;-71
2022/06/20 01:33:48;;;;;;;1.53;1.53;;;24.50;71.10;;;;;;5069420;28;43944;-72
2022/06/20 01:39:02;;;;;;;1.57;1.53;;;24.80;70.10;;;;;;5067652;28;46046;-71
2022/06/20 01:44:17;;;;;;;1.30;1.30;;;25.20;68.80;;;;;;5069212;28;43902;-70
2022/06/20 01:46:46;;;;;;;1.70;1.70;;;25.40;68.20;;;;;;5068065;28;44210;-71
2022/06/20 01:49:17;;;;;;;1.53;1.53;;;25.50;68.50;;;;;;5068640;28;43837;-71
2022/06/20 01:51:48;;;;;;;1.40;1.40;;;25.60;67.40;;;;;;5069096;28;43353;-71
2022/06/20 01:54:16;;;;;;;1.40;1.40;;;25.70;67.00;;;;;;5067556;28;43783;-71
2022/06/20 01:56:44;;;;;;;1.60;1.60;;;25.90;66.70;;;;;;5069516;28;44197;-70
2022/06/20 01:59:14;;;;;;;1.75;1.75;;;25.90;66.30;;;;;;5067201;28;44848;-70
2022/06/20 02:01:43;;;;;;;1.30;1.30;;;26.00;66.10;;;;;;5068971;28;43442;-70
2022/06/20 02:04:13;;;;;;;1.70;1.70;;;25.90;66.20;;;;;;5068493;28;43367;-70
2022/06/20 02:06:41;;;;;;;1.50;1.50;;;25.70;66.70;;;;;;5069304;28;43400;-70
2022/06/20 02:09:10;;;;;;;1.50;1.50;;;25.50;67.20;;;;;;5068561;28;43977;-71
2022/06/20 02:11:40;;;;;;;1.70;1.70;;;25.30;67.80;;;;;;5068708;28;43317;-69
2022/06/20 02:14:11;;;;;;;1.70;1.70;;;25.10;68.50;;;;;;5068850;28;43983;-71
2022/06/20 02:16:40;;;;;;;1.40;1.40;;;25.00;69.00;;;;;;5069281;28;43957;-70
2022/06/20 02:19:10;;;;;;;1.40;1.40;;;24.80;69.30;;;;;;5068197;28;43908;-71
2022/06/20 02:21:38;;;;;;;1.70;1.70;;;24.70;69.60;;;;;;5068820;28;43831;-70
2022/06/20 02:24:08;;;;;;;1.60;1.60;;;24.70;70.00;;;;;;5067278;28;43998;-71
2022/06/20 02:26:37;;;;;;;1.40;1.40;;;24.60;70.10;;;;;;5069212;28;43943;-71
2022/06/20 02:29:06;;;;;;;1.60;1.60;;;24.60;70.30;;;;;;5068264;28;43915;-70
2022/06/20 02:31:34;;;;;;;1.50;1.50;;;24.50;70.30;;;;;;5068668;28;44075;-71
2022/06/20 02:34:02;;;;;;;1.50;1.50;;;24.50;70.50;;;;;;5068183;28;44019;-71
2022/06/20 02:36:32;;;;;;;1.60;1.60;;;24.50;70.60;;;;;;5068380;28;43949;-71
2022/06/20 02:39:00;;;;;;;1.27;1.27;;;24.40;70.60;;;;;;5068335;28;44014;-71
2022/06/20 02:41:28;;;;;;;1.30;1.30;;;24.40;70.60;;;;;;5068283;28;43983;-71
2022/06/20 02:43:58;;;;;;;1.47;1.47;;;24.40;70.80;;;;;;5066748;28;43976;-70
2022/06/20 02:46:27;;;;;;;1.40;1.40;;;24.40;71.10;;;;;;5067012;28;43964;-72
2022/06/20 02:48:55;;;;;;;1.60;1.60;;;24.60;70.80;;;;;;5067526;28;44950;-72
2022/06/20 02:51:26;;;;;;;1.40;1.40;;;24.80;70.20;;;;;;5068160;28;43415;-70
2022/06/20 02:53:56;;;;;;;1.57;1.57;;;25.00;69.50;;;;;;5068019;28;43913;-71
2022/06/20 02:56:25;;;;;;;1.30;1.30;;;25.20;68.90;;;;;;5060692;28;44012;-71
2022/06/20 02:58:54;;;;;;;1.60;1.60;;;25.30;69.00;;;;;;5061495;28;44127;-72
2022/06/20 03:01:25;;;;;;;1.30;1.30;;;25.40;67.80;;;;;;5067766;28;44112;-71
2022/06/20 03:03:55;;;;;;;1.30;1.30;;;25.60;67.50;;;;;;5067855;28;43892;-71
2022/06/20 03:06:24;;;;;;;1.35;1.35;;;25.70;67.20;;;;;;5068436;28;43952;-71
2022/06/20 03:08:52;;;;;;;1.40;1.40;;;25.80;66.70;;;;;;5067716;28;43961;-71
2022/06/20 03:11:22;;;;;;;1.50;1.50;;;25.90;66.40;;;;;;5067492;28;43987;-71
2022/06/20 03:13:50;;;;;;;1.48;1.48;;;25.90;66.10;;;;;;5067568;28;43967;-72
2022/06/20 03:16:18;;;;;;;1.57;1.57;;;25.80;66.10;;;;;;5068259;28;43908;-72
2022/06/20 03:18:48;;;;;;;1.23;1.23;;;25.60;66.50;;;;;;5067069;28;44966;-71
2022/06/20 03:21:16;;;;;;;1.50;1.50;;;25.50;67.20;;;;;;5067474;28;43936;-70
2022/06/20 03:23:44;;;;;;;1.50;1.50;;;25.30;67.80;;;;;;5067743;28;43903;-70
2022/06/20 03:26:16;;;;;;;1.50;1.50;;;25.10;68.50;;;;;;5068005;28;43427;-70
2022/06/20 03:28:46;;;;;;;1.77;1.70;;;24.90;68.90;;;;;;5067215;28;43743;-71
2022/06/20 03:31:14;;;;;;;1.50;1.50;;;24.80;69.30;;;;;;5067942;28;44014;-71
2022/06/20 03:33:42;;;;;;;1.40;1.40;;;24.70;69.50;;;;;;5067857;28;44113;-70
2022/06/20 03:36:13;;;;;;;1.67;1.50;;;24.60;69.70;;;;;;5067792;28;43450;-71
2022/06/20 03:38:44;;;;;;;1.83;1.60;;;24.50;69.80;;;;;;5063639;28;44692;-71
2022/06/20 03:41:14;;;;;;;1.53;1.53;;;24.50;69.90;;;;;;5067331;28;43892;-71
2022/06/20 03:43:43;;;;;;;1.80;1.80;;;24.50;70.10;;;;;;5067506;28;43976;-71
2022/06/20 03:46:22;;;;;;;1.80;1.70;;;24.50;70.30;;;;;;5065891;28;44023;-71
2022/06/20 03:48:54;;;;;;;1.60;1.60;;;24.40;70.30;;;;;;5066296;28;44793;-71
2022/06/20 03:51:24;;;;;;;1.70;1.70;;;24.40;70.30;;;;;;5067398;28;43975;-71
2022/06/20 03:53:55;;;;;;;2.03;1.90;;;24.40;70.30;;;;;;5067012;28;43962;-70
2022/06/20 03:56:25;;;;;;;1.90;1.80;;;24.40;70.80;;;;;;5059719;28;43754;-71
2022/06/20 03:58:57;;;;;;;1.80;1.70;;;24.50;70.70;;;;;;5067092;28;44950;-71
2022/06/20 04:01:28;;;;;;;1.83;1.80;;;24.70;70.20;;;;;;5066907;28;43964;-72
2022/06/20 04:03:57;;;;;;;3.07;1.70;;;24.90;69.50;;;;;;5067091;28;43898;-71
2022/06/20 04:06:29;;;;;;;1.87;1.77;;;25.10;68.70;;;;;;5067637;28;43950;-69
2022/06/20 04:11:46;;;;;;;2.10;1.90;;;25.50;67.30;;;;;;5066966;28;44078;-71
2022/06/20 04:14:15;;;;;;;1.83;1.73;;;25.60;66.90;;;;;;5067056;28;43954;-70
2022/06/20 04:16:45;;;;;;;1.83;1.73;;;25.80;66.60;;;;;;5067423;28;43432;-71
2022/06/20 04:19:14;;;;;;;2.05;1.95;;;25.90;66.00;;;;;;5066739;28;44390;-70
2022/06/20 04:21:44;;;;;;;1.70;1.67;;;26.00;65.60;;;;;;5067099;28;44091;-70
2022/06/20 04:24:16;;;;;;;1.73;1.73;;;26.10;65.40;;;;;;5067186;28;43972;-70
2022/06/20 04:26:49;;;;;;;2.15;2.05;;;26.10;65.10;;;;;;5067380;28;43940;-71
2022/06/20 04:29:18;;;;;;;2.47;1.90;;;26.10;65.00;;;;;;5066502;28;43910;-71
2022/06/20 04:31:49;;;;;;;2.30;2.10;;;25.90;65.40;;;;;;5058987;28;45105;-70
2022/06/20 04:34:21;;;;;;;1.90;1.80;;;25.70;65.90;;;;;;5066945;28;43394;-70
2022/06/20 04:36:52;;;;;;;1.88;1.77;;;25.50;66.60;;;;;;5065701;28;43999;-71
2022/06/20 04:39:22;;;;;;;2.00;1.90;;;25.20;67.40;;;;;;5066562;28;43968;-70
2022/06/20 04:41:53;;;;;;;2.08;1.98;;;25.10;68.10;;;;;;5066610;28;43904;-70
2022/06/20 04:44:24;;;;;;;1.90;1.80;;;24.90;68.40;;;;;;5066671;28;44061;-70
2022/06/20 04:46:56;;;;;;;1.90;1.90;;;24.80;68.80;;;;;;5067086;28;43383;-72
2022/06/20 04:49:24;;;;;;;1.95;1.95;;;24.70;69.00;;;;;;5066219;28;43984;-71
2022/06/20 04:51:52;;;;;;;2.05;2.00;;;24.60;69.30;;;;;;5066395;28;43950;-70
2022/06/20 04:54:21;;;;;;;1.80;1.80;;;24.60;69.50;;;;;;5066664;28;44011;-71
2022/06/20 04:56:50;;;;;;;1.90;1.90;;;24.50;69.60;;;;;;5066888;28;43468;-71
2022/06/20 04:59:19;;;;;;;1.57;1.57;;;24.50;70.60;;;;;;5068549;28;43863;-70
2022/06/20 05:01:47;;;;;;;1.80;1.80;;;24.40;69.90;;;;;;5069868;28;43935;-71
2022/06/20 05:04:23;;;;;;;2.10;2.00;;;24.40;70.00;;;;;;5070105;28;43890;-71
2022/06/20 05:06:52;;;;;;;2.00;1.90;;;24.40;70.10;;;;;;5069060;28;43896;-70
2022/06/20 05:09:22;;;;;;;1.83;1.80;;;24.40;70.00;;;;;;5068277;28;45984;-71
2022/06/20 05:11:52;;;;;;;1.90;1.80;;;24.40;70.60;;;;;;5068471;28;45196;-70
2022/06/20 05:14:22;;;;;;;1.70;1.70;;;24.40;70.60;;;;;;5069614;28;43776;-71
2022/06/20 05:16:57;;;;;;;2.17;2.07;;;24.70;70.30;;;;;;5068718;28;43383;-71
2022/06/20 05:19:30;;;;;;;2.07;1.97;;;24.80;70.20;;;;;;5061799;28;46135;-72
2022/06/20 05:21:59;;;;;;;2.00;1.90;;;25.10;68.90;;;;;;5069501;28;43991;-71
2022/06/20 05:24:30;;;;;;;1.90;1.80;;;25.20;68.90;;;;;;5069422;28;43309;-71
2022/06/20 05:26:58;;;;;;;2.08;1.98;;;25.40;67.80;;;;;;5070053;28;43939;-71
2022/06/20 05:29:28;;;;;;;1.90;1.90;;;25.50;67.50;;;;;;5069438;28;44853;-70
2022/06/20 05:31:57;;;;;;;1.73;1.70;;;25.60;67.10;;;;;;5069360;28;44014;-71
2022/06/20 05:34:29;;;;;;;1.67;1.67;;;25.70;66.50;;;;;;5069576;28;43928;-70
2022/06/20 05:36:59;;;;;;;1.67;1.67;;;25.90;66.20;;;;;;5069825;28;43952;-70
2022/06/20 05:39:28;;;;;;;1.70;1.70;;;26.00;65.90;;;;;;5069026;28;44705;-70
2022/06/20 05:41:56;;;;;;;2.03;1.92;;;26.00;65.50;;;;;;5069380;28;43856;-71
2022/06/20 05:44:24;;;;;;;1.70;1.67;;;26.00;65.40;;;;;;5069399;28;43406;-70
2022/06/20 05:46:55;;;;;;;2.10;2.00;;;25.90;65.70;;;;;;5069783;28;44022;-71
2022/06/20 05:49:25;;;;;;;1.80;1.80;;;25.60;66.10;;;;;;5069190;28;45013;-70
2022/06/20 05:51:55;;;;;;;1.60;1.50;;;25.40;66.80;;;;;;5069394;28;43776;-70
2022/06/20 05:54:27;;;;;;;1.77;1.77;;;25.20;67.50;;;;;;5069259;28;43378;-71
2022/06/20 05:56:57;;;;;;;1.80;1.80;;;25.00;68.20;;;;;;5069650;28;43293;-70
2022/06/20 05:59:37;;;;;;;1.80;1.80;;;24.90;68.60;;;;;;5069115;28;43820;-71
2022/06/20 06:02:14;;;;;;;2.00;1.90;;;24.80;68.90;;;;;;5069155;28;44003;-71
2022/06/20 06:04:44;;;;;;;1.80;1.80;;;24.70;69.20;;;;;;5063113;28;43464;-70
2022/06/20 06:07:16;;;;;;;2.17;2.10;;;24.60;69.40;;;;;;5069396;28;43959;-70
2022/06/20 06:09:55;;;;;;;1.97;1.87;;;24.50;69.50;;;;;;5068149;28;43737;-70
2022/06/20 06:12:27;;;;;;;2.07;1.97;;;24.50;69.80;;;;;;5069062;28;43964;-70
2022/06/20 06:14:57;;;;;;;1.70;1.70;;;24.50;69.90;;;;;;5068298;28;43936;-69
2022/06/20 06:17:27;;;;;;;2.03;1.93;;;24.40;70.00;;;;;;5069226;28;43774;-71
2022/06/20 06:20:13;;;;;;;2.10;2.00;;;24.40;70.10;;;;;;5068863;28;43908;-71
2022/06/20 06:22:43;;;;;;;1.70;1.70;;;24.40;70.90;;;;;;5068703;28;43882;-71
2022/06/20 06:25:23;;;;;;;1.90;1.90;;;24.40;70.40;;;;;;5060647;28;44009;-71
2022/06/20 06:27:52;;;;;;;1.90;1.90;;;24.40;71.00;;;;;;5064272;28;43909;-71
2022/06/20 06:30:21;;;;;;;1.70;1.60;;;24.50;70.60;;;;;;5068501;28;43951;-70
2022/06/20 06:32:51;;;;;;;1.67;1.67;;;24.70;69.90;;;;;;5068447;28;44095;-71
2022/06/20 06:35:21;;;;;;;1.60;1.60;;;25.00;69.40;;;;;;5068541;28;43321;-71
2022/06/20 06:37:54;;;;;;;1.60;1.60;;;25.10;68.60;;;;;;5069216;28;44028;-71
2022/06/20 06:40:24;;;;;;;1.73;1.73;;;25.30;68.20;;;;;;5068499;28;44022;-71
2022/06/20 06:42:54;;;;;;;1.60;1.60;;;25.40;67.90;;;;;;5066888;28;46078;-70
2022/06/20 06:45:24;;;;;;;1.83;1.80;;;25.50;67.40;;;;;;5068549;28;43983;-70
2022/06/20 06:47:56;;;;;;;1.40;1.40;;;25.60;67.00;;;;;;5068413;28;43896;-71
2022/06/20 06:50:28;;;;;;;1.98;1.92;;;25.70;66.60;;;;;;5068260;28;43959;-71
2022/06/20 06:52:58;;;;;;;1.65;1.65;;;25.90;66.30;;;;;;5068184;28;43359;-70
2022/06/20 06:55:30;;;;;;;1.70;1.70;;;25.90;65.90;;;;;;5068325;28;43531;-70
2022/06/20 06:58:02;;;;;;;2.00;2.00;;;25.90;65.70;;;;;;5068609;28;43978;-70
2022/06/20 07:00:31;;;;;;;1.80;1.80;;;25.80;65.90;;;;;;5061517;28;44949;-71
2022/06/20 07:03:01;;;;;;;1.77;1.75;;;25.60;66.50;;;;;;5060104;28;45820;-70
2022/06/20 07:05:32;;;;;;;1.80;1.80;;;25.40;67.00;;;;;;5061589;28;43432;-72
2022/06/20 07:08:05;;;;;;;1.73;1.73;;;25.20;67.70;;;;;;5067368;28;43948;-71
2022/06/20 07:10:34;;;;;;;1.85;1.77;;;25.00;68.30;;;;;;5067925;28;44130;-70
2022/06/20 07:13:05;;;;;;;1.93;1.63;;;24.80;68.60;;;;;;5067800;28;44015;-71
2022/06/20 07:15:36;;;;;;;1.80;1.70;;;24.80;69.70;;;;;;5067935;28;43368;-70
2022/06/20 07:18:05;;;;;;;1.50;1.50;;;24.70;69.40;;;;;;5068505;28;43956;-71
2022/06/20 07:20:34;;;;;;;2.07;2.07;;;24.60;69.60;;;;;;5067540;28;43935;-70
2022/06/20 07:23:06;;;;;;;1.70;1.70;;;24.50;69.70;;;;;;5066598;28;44016;-70
2022/06/20 07:25:36;;;;;;;1.57;1.57;;;24.50;69.90;;;;;;5068049;28;43832;-70
2022/06/20 07:28:05;;;;;;;1.80;1.70;;;24.40;69.90;;;;;;5068493;28;44031;-70
2022/06/20 07:30:39;;;;;;;1.80;1.80;;;24.40;70.10;;;;;;5067054;28;44874;-72
2022/06/20 07:33:09;;;;;;;2.50;1.90;;;24.40;70.20;;;;;;5067765;28;43947;-71
2022/06/20 07:35:39;;;;;;;1.67;1.67;;;24.40;70.30;;;;;;5067981;28;44087;-71
2022/06/20 07:38:10;;;;;;;2.00;1.90;;;24.30;70.30;;;;;;5068429;28;43377;-71
2022/06/20 07:40:45;;;;;;;1.80;1.80;;;24.30;70.90;;;;;;5067378;28;44739;-72
2022/06/20 07:43:15;;;;;;;1.47;1.47;;;24.40;71.00;;;;;;5067563;28;43364;-71
2022/06/20 07:45:46;;;;;;;2.03;2.03;;;24.60;70.50;;;;;;5061167;28;43980;-71
2022/06/20 07:48:17;;;;;;;1.80;1.80;;;24.80;69.80;;;;;;5059882;28;43609;-71
2022/06/20 07:50:48;;;;;;;1.70;1.60;;;25.00;69.30;;;;;;5067225;28;44028;-71
2022/06/20 07:53:20;;;;;;;1.80;1.80;;;25.10;68.60;;;;;;5067308;28;43797;-72
2022/06/20 07:55:50;;;;;;;1.60;1.60;;;25.30;68.10;;;;;;5067365;28;43947;-70
2022/06/20 07:58:20;;;;;;;1.93;1.83;;;25.40;67.80;;;;;;5067700;28;43453;-71
2022/06/20 08:00:50;;;;;;;1.60;1.60;;;25.50;67.40;;;;;;5067194;28;43979;-71
2022/06/20 08:03:24;;;;;;;1.50;1.50;;;25.60;67.00;;;;;;5067335;28;44377;-71
2022/06/20 08:05:55;;;;;;;1.60;1.60;;;25.80;66.70;;;;;;5067125;28;43771;-71
2022/06/20 08:08:26;;;;;;;1.60;1.60;;;25.90;66.30;;;;;;5067606;28;43959;-71
2022/06/20 08:10:58;;;;;;;1.60;1.60;;;25.90;66.00;;;;;;5066931;28;43976;-71
2022/06/20 08:13:30;;;;;;;1.85;1.85;;;26.00;65.80;;;;;;5067016;28;43991;-70
2022/06/20 08:16:00;;;;;;;1.67;1.67;;;25.90;65.90;;;;;;5066901;28;43778;-71
2022/06/20 08:18:28;;;;;;;1.50;1.50;;;25.70;66.30;;;;;;5067133;28;43883;-70
2022/06/20 08:20:58;;;;;;;1.42;1.42;;;25.50;66.90;;;;;;5066780;28;43983;-71
2022/06/20 08:23:31;;;;;;;1.92;1.92;;;25.30;67.40;;;;;;5066862;28;44221;-71
2022/06/20 08:26:01;;;;;;;1.75;1.73;;;25.10;68.20;;;;;;5060055;28;43350;-70
2022/06/20 08:28:32;;;;;;;1.60;1.60;;;24.90;69.30;;;;;;5067381;28;43963;-72
2022/06/20 08:31:01;;;;;;;1.67;1.67;;;24.80;68.90;;;;;;5060702;28;44787;-70
2022/06/20 08:33:32;;;;;;;1.60;1.60;;;24.70;69.30;;;;;;5064745;28;45157;-70
2022/06/20 08:36:03;;;;;;;1.73;1.73;;;24.60;69.60;;;;;;5066771;28;44050;-70
2022/06/20 08:38:35;;;;;;;1.50;1.50;;;24.50;69.80;;;;;;5067202;28;44007;-72
2022/06/20 08:41:22;;;;;;;1.60;1.60;;;24.50;70.00;;;;;;5066560;28;43941;-70
2022/06/20 08:44:08;;;;;;;1.67;1.67;;;24.40;70.10;;;;;;5066696;28;44142;-70
2022/06/20 08:46:50;;;;;;;1.60;1.60;;;24.40;70.30;;;;;;5066666;28;43972;-71
2022/06/20 08:49:45;;;;;;;1.67;1.67;;;24.40;70.40;;;;;;5067011;28;43876;-70
2022/06/20 08:52:45;;;;;;;1.80;1.80;;;24.30;70.50;;;;;;5066454;28;43849;-70
2022/06/20 08:55:52;;;;;;;1.70;1.70;;;24.30;71.00;;;;;;5040725;28;44029;-71
2022/06/20 08:58:27;;;;;;;1.60;1.60;;;24.40;71.10;;;;;;5066733;28;43798;-71
2022/06/20 09:00:58;;;;;;;1.60;1.60;;;24.60;70.50;;;;;;5067079;28;43973;-71
2022/06/20 09:03:43;;;;;;;1.80;1.70;;;24.80;69.80;;;;;;5066428;28;43956;-70
2022/06/20 09:06:47;;;;;;;1.60;1.60;;;25.00;69.30;;;;;;5066134;28;43940;-70
2022/06/20 09:09:24;;;;;;;1.97;1.87;;;25.20;68.50;;;;;;5066528;28;43933;-71
2022/06/20 09:12:05;;;;;;;1.90;1.80;;;25.30;68.20;;;;;;5066710;28;43956;-71
2022/06/20 09:14:45;;;;;;;1.70;1.70;;;25.50;67.70;;;;;;5065528;28;45063;-70
2022/06/20 09:17:18;;;;;;;1.70;1.70;;;25.60;67.20;;;;;;5066233;28;43300;-71
2022/06/20 09:19:55;;;;;;;1.70;1.70;;;25.70;66.90;;;;;;5066489;28;43434;-71
2022/06/20 09:22:30;;;;;;;1.63;1.63;;;25.80;66.40;;;;;;5066765;28;43936;-70
2022/06/20 09:25:13;;;;;;;1.80;1.80;;;25.90;66.10;;;;;;5066041;28;43937;-71
2022/06/20 09:27:48;;;;;;;1.87;1.87;;;25.90;65.90;;;;;;5066163;28;43998;-70
2022/06/20 09:30:18;;;;;;;2.00;1.80;;;25.70;66.30;;;;;;5060913;28;43420;-71
2022/06/20 09:33:28;;;;;;;2.00;1.90;;;25.50;66.80;;;;;;5066406;28;43999;-70
2022/06/20 09:36:20;;;;;;;1.77;1.70;;;25.30;67.50;;;;;;5066042;28;43615;-70
2022/06/20 09:38:54;;;;;;;1.80;1.80;;;25.00;68.30;;;;;;5066066;28;43347;-70
2022/06/20 09:41:27;;;;;;;1.80;1.70;;;24.90;68.80;;;;;;5066181;28;43850;-70
2022/06/20 09:44:09;;;;;;;1.90;1.90;;;24.70;69.10;;;;;;5066580;28;43277;-71
2022/06/20 09:46:40;;;;;;;2.07;1.97;;;24.60;69.30;;;;;;5068796;28;44790;-70
2022/06/20 09:49:19;;;;;;;1.90;1.90;;;24.50;69.50;;;;;;5069215;28;43877;-71
2022/06/20 09:51:52;;;;;;;1.70;1.70;;;24.50;69.90;;;;;;5069412;28;43454;-71
2022/06/20 09:54:23;;;;;;;1.93;1.83;;;24.40;70.00;;;;;;5069862;28;43936;-70
2022/06/20 09:56:55;;;;;;;2.30;1.80;;;24.40;70.20;;;;;;5069023;28;43862;-71
2022/06/20 09:59:29;;;;;;;1.90;1.80;;;24.30;70.20;;;;;;5069148;28;43861;-71
2022/06/20 10:02:01;;;;;;;1.80;1.80;;;24.30;70.30;;;;;;5069163;28;43512;-71
2022/06/20 10:04:33;;;;;;;1.90;1.80;;;24.30;70.50;;;;;;5069441;28;44009;-72
2022/06/20 10:07:24;;;;;;;1.90;1.90;;;24.30;71.30;;;;;;5068966;28;43971;-70
2022/06/20 10:09:55;;;;;;;1.60;1.60;;;24.40;71.10;;;;;;5069044;28;44022;-71
2022/06/20 10:12:28;;;;;;;1.63;1.63;;;24.50;70.40;;;;;;5067750;28;43944;-71
2022/06/20 10:15:02;;;;;;;1.80;1.80;;;24.70;69.90;;;;;;5069081;28;43995;-70
2022/06/20 10:17:35;;;;;;;1.90;1.80;;;24.90;69.30;;;;;;5068689;28;43911;-71
2022/06/20 10:20:10;;;;;;;1.90;1.90;;;25.10;69.60;;;;;;5068839;28;44023;-71
2022/06/20 10:22:47;;;;;;;1.80;1.77;;;25.20;68.40;;;;;;5069229;28;43873;-71
2022/06/20 10:25:47;;;;;;;1.70;1.70;;;25.40;68.00;;;;;;5069131;28;43932;-71
2022/06/20 10:28:16;;;;;;;1.90;1.90;;;25.50;67.30;;;;;;5068624;28;43999;-71
2022/06/20 10:30:48;;;;;;;1.77;1.67;;;25.60;66.90;;;;;;5068755;28;44007;-70
2022/06/20 10:33:33;;;;;;;1.70;1.60;;;25.80;66.60;;;;;;5068483;28;43959;-71
2022/06/20 10:36:15;;;;;;;1.67;1.67;;;25.90;66.20;;;;;;5067525;28;44268;-72
2022/06/20 10:38:44;;;;;;;1.70;1.70;;;25.90;65.70;;;;;;5068432;28;45110;-71
2022/06/20 10:41:17;;;;;;;1.80;1.80;;;25.90;65.80;;;;;;5068153;28;43967;-71
2022/06/20 10:43:47;;;;;;;1.60;1.60;;;25.70;66.90;;;;;;5068557;28;44069;-71
2022/06/20 10:46:27;;;;;;;1.80;1.80;;;25.40;66.60;;;;;;5068788;28;43281;-71
2022/06/20 10:49:11;;;;;;;1.70;1.70;;;25.20;67.40;;;;;;5067929;28;45057;-71
2022/06/20 10:51:42;;;;;;;1.67;1.67;;;25.00;68.30;;;;;;5068460;28;43836;-71
2022/06/20 10:54:18;;;;;;;1.63;1.63;;;24.80;68.70;;;;;;5068066;28;43890;-71
2022/06/20 10:56:50;;;;;;;1.70;1.70;;;24.70;69.10;;;;;;5068229;28;44092;-70
2022/06/20 10:59:28;;;;;;;2.00;2.00;;;24.50;69.40;;;;;;5068139;28;43607;-70
2022/06/20 11:02:01;;;;;;;1.80;1.80;;;24.50;69.70;;;;;;5068070;28;43888;-72
2022/06/20 11:04:46;;;;;;;1.50;1.50;;;24.40;70.00;;;;;;5068284;28;43413;-71
2022/06/20 11:07:20;;;;;;;1.50;1.50;;;24.40;70.20;;;;;;5068346;28;43881;-71
2022/06/20 11:09:56;;;;;;;1.70;1.70;;;24.30;70.30;;;;;;5067906;28;44725;-71
2022/06/20 11:12:27;;;;;;;1.43;1.43;;;24.30;70.60;;;;;;5068126;28;44008;-72
2022/06/20 11:14:58;;;;;;;1.70;1.70;;;24.30;70.70;;;;;;5067612;28;43988;-70
2022/06/20 11:17:29;;;;;;;1.60;1.60;;;24.20;70.80;;;;;;5068175;28;44021;-70
2022/06/20 11:20:00;;;;;;;1.43;1.43;;;24.20;71.00;;;;;;5067795;28;43897;-71
2022/06/20 11:22:35;;;;;;;1.63;1.63;;;24.20;71.70;;;;;;5067808;28;43979;-70
2022/06/20 11:25:14;;;;;;;1.53;1.53;;;24.30;71.20;;;;;;5067898;28;43937;-71
2022/06/20 11:28:03;;;;;;;1.60;1.60;;;24.50;70.70;;;;;;5066728;28;43400;-71
2022/06/20 11:30:37;;;;;;;4.40;1.70;;;24.70;70.00;;;;;;5064456;28;43949;-71
2022/06/20 11:33:15;;;;;;;1.33;1.33;;;24.90;69.00;;;;;;5067770;28;43400;-70
2022/06/20 11:35:49;;;;;;;1.60;1.60;;;25.00;69.50;;;;;;5067502;28;43918;-70
2022/06/20 11:38:32;;;;;;;2.50;1.60;;;25.20;68.60;;;;;;5068085;28;43396;-70
2022/06/20 11:41:01;;;;;;;1.70;1.60;;;25.30;68.10;;;;;;5067488;28;44018;-71
2022/06/20 11:43:39;;;;;;;1.65;1.65;;;25.50;67.70;;;;;;5067552;28;44003;-71
2022/06/20 11:46:27;;;;;;;1.67;1.67;;;25.60;67.20;;;;;;5067710;28;44031;-70
2022/06/20 11:49:03;;;;;;;1.60;1.60;;;25.70;66.90;;;;;;5067520;28;44015;-71
2022/06/20 11:51:42;;;;;;;1.40;1.40;;;25.80;66.40;;;;;;5060844;28;43939;-70
2022/06/20 11:54:16;;;;;;;1.55;1.55;;;25.90;66.10;;;;;;5062553;28;43767;-70
2022/06/20 11:56:47;;;;;;;3.50;1.40;;;25.80;66.10;;;;;;5067211;28;44006;-70
2022/06/20 11:59:22;;;;;;;1.40;1.40;;;25.60;66.50;;;;;;5067812;28;43997;-72
2022/06/20 12:01:53;;;;;;;1.40;1.40;;;25.50;67.30;;;;;;5065440;28;45812;-70
2022/06/20 12:04:25;;;;;;;1.30;1.30;;;25.20;67.80;;;;;;5067249;28;43914;-71
2022/06/20 12:06:55;;;;;;;1.50;1.50;;;25.00;68.50;;;;;;5067286;28;43867;-70
2022/06/20 12:09:27;;;;;;;1.50;1.50;;;24.80;69.00;;;;;;5066714;28;44025;-71
2022/06/20 12:12:06;;;;;;;1.60;1.40;;;24.70;69.40;;;;;;5066948;28;44811;-70
2022/06/20 12:14:40;;;;;;;1.50;1.50;;;24.50;69.70;;;;;;5066696;28;43943;-71
2022/06/20 12:17:21;;;;;;;1.30;1.30;;;24.50;70.00;;;;;;5067223;28;43898;-71
2022/06/20 12:23:24;;;;;;;1.47;1.47;;;24.30;70.50;;;;;;5063531;28;43772;-70
2022/06/20 12:25:54;;;;;;;1.60;1.60;;;24.20;70.60;;;;;;5066853;28;44022;-71
2022/06/20 12:28:24;;;;;;;1.40;1.40;;;24.20;70.80;;;;;;5066849;28;43827;-71
2022/06/20 12:30:54;;;;;;;1.50;1.50;;;24.20;70.90;;;;;;5067294;28;44038;-71
2022/06/20 12:33:22;;;;;;;1.50;1.50;;;24.10;70.90;;;;;;5066562;28;44031;-71
2022/06/20 12:35:57;;;;;;;1.70;1.60;;;24.10;71.00;;;;;;5066584;28;44103;-70
2022/06/20 12:38:33;;;;;;;1.17;1.17;;;24.10;72.00;;;;;;5066949;28;43955;-72
2022/06/20 12:41:03;;;;;;;1.40;1.40;;;24.20;71.70;;;;;;5067220;28;43905;-71
2022/06/20 12:43:37;;;;;;;1.27;1.27;;;24.40;71.20;;;;;;5066597;28;43946;-71
2022/06/20 12:46:20;;;;;;;1.60;1.60;;;24.50;70.60;;;;;;5067000;28;43956;-70
2022/06/20 12:49:07;;;;;;;1.50;1.50;;;24.80;70.10;;;;;;5066391;28;43374;-71
2022/06/20 12:51:42;;;;;;;1.50;1.50;;;25.00;69.50;;;;;;5067382;28;44037;-71
2022/06/20 12:54:18;;;;;;;1.50;1.50;;;25.10;68.90;;;;;;5066563;28;44020;-70
2022/06/20 12:56:54;;;;;;;3.77;1.50;;;25.20;68.50;;;;;;5064726;28;44744;-71
2022/06/20 12:59:57;;;;;;;1.40;1.40;;;25.30;68.10;;;;;;5066680;28;43939;-70
2022/06/20 13:02:26;;;;;;;1.30;1.30;;;25.50;67.70;;;;;;5066729;28;44045;-70
2022/06/20 13:05:22;;;;;;;1.30;1.30;;;25.60;67.30;;;;;;5066309;28;43909;-71
2022/06/20 13:08:14;;;;;;;1.47;1.37;;;25.70;66.80;;;;;;5066248;28;43884;-70
2022/06/20 13:10:48;;;;;;;1.30;1.30;;;25.60;66.60;;;;;;5065067;28;43966;-70
2022/06/20 13:13:47;;;;;;;1.30;1.30;;;25.50;67.10;;;;;;5066819;28;43975;-71
2022/06/20 13:16:19;;;;;;;1.30;1.30;;;25.20;67.70;;;;;;5066033;28;43956;-71
2022/06/20 13:19:08;;;;;;;1.30;1.30;;;25.00;68.30;;;;;;5066193;28;43959;-71
2022/06/20 13:21:39;;;;;;;1.60;1.60;;;24.80;69.00;;;;;;5058462;28;44112;-71
2022/06/20 13:24:19;;;;;;;1.23;1.23;;;24.60;69.40;;;;;;5070390;28;43788;-71
2022/06/20 13:27:08;;;;;;;1.30;1.30;;;24.50;69.60;;;;;;5069475;28;43941;-71
2022/06/20 13:29:40;;;;;;;1.60;1.60;;;24.40;69.90;;;;;;5069820;28;43932;-71